createdAt,value
2022-12-17T00:05:25.640Z,0
2022-12-17T00:20:21.700Z,0
2022-12-17T00:35:17.718Z,0
2022-12-17T00:50:13.713Z,0
2022-12-17T01:05:09.605Z,0
2022-12-17T01:20:05.497Z,0.02
2022-12-17T01:35:01.516Z,0
2022-12-17T01:49:57.284Z,0
2022-12-17T02:04:53.935Z,0
2022-12-17T02:19:49.909Z,0
2022-12-17T02:34:45.927Z,0
2022-12-17T02:49:41.746Z,0
2022-12-17T03:04:37.952Z,0
2022-12-17T03:19:33.816Z,0
2022-12-17T03:34:30.253Z,0
2022-12-17T03:49:26.624Z,0
2022-12-17T04:04:23.097Z,0
2022-12-17T04:19:18.797Z,0
2022-12-17T04:34:15.254Z,0
2022-12-17T04:49:11.223Z,0
2022-12-17T05:04:07.253Z,0
2022-12-17T05:19:02.892Z,0
2022-12-17T05:33:58.683Z,0
2022-12-17T05:48:54.833Z,0
2022-12-17T06:03:51.329Z,0
2022-12-17T06:18:47.246Z,0
2022-12-17T07:03:36.242Z,0.01
2022-12-17T07:18:32.228Z,0.01
2022-12-17T07:33:28.096Z,0.01
2022-12-17T07:48:24.148Z,0.01
2022-12-17T08:03:20.160Z,0.02
2022-12-17T08:18:18.225Z,0.04
2022-12-17T08:33:12.910Z,0.05
2022-12-17T08:48:08.875Z,0.05
2022-12-17T09:03:05.546Z,0.05
2022-12-17T09:18:01.421Z,0.06
2022-12-17T09:32:57.964Z,0.06
2022-12-17T09:47:54.372Z,0.08
2022-12-17T10:02:50.638Z,0.08
2022-12-17T10:17:46.659Z,0.1
2022-12-17T10:32:42.802Z,0.1
2022-12-17T10:47:38.412Z,0.05
2022-12-17T11:02:34.981Z,0.1
2022-12-17T11:17:30.920Z,0.12
2022-12-17T11:32:27.012Z,0.1
2022-12-17T11:47:23.005Z,0.1
2022-12-17T12:02:18.661Z,0.09
2022-12-17T12:17:14.513Z,0.1
2022-12-17T12:32:10.433Z,0.1
2022-12-17T13:02:03.321Z,0.08
2022-12-17T13:16:59.302Z,0.1
2022-12-17T13:31:55.896Z,0.08
2022-12-17T13:46:51.599Z,0.07
2022-12-17T14:01:47.913Z,0.07
2022-12-17T14:16:47.510Z,0.04
2022-12-17T14:31:39.769Z,0.04
2022-12-17T14:46:35.522Z,0.05
2022-12-17T15:01:31.710Z,0.03
2022-12-17T15:16:27.528Z,0.02
2022-12-17T15:31:26.044Z,0.02
2022-12-17T15:46:20.239Z,0.01
2022-12-17T16:01:15.653Z,0
2022-12-17T16:16:11.614Z,0
2022-12-17T16:31:07.924Z,0
2022-12-17T16:46:06.516Z,0
2022-12-17T17:00:59.903Z,0
2022-12-17T17:15:55.970Z,0
2022-12-17T17:30:52.053Z,0
2022-12-17T17:45:48.029Z,0
2022-12-17T18:00:43.822Z,0
2022-12-17T18:15:40.008Z,0
2022-12-17T18:30:36.092Z,0
2022-12-17T18:45:32.263Z,0
2022-12-17T19:00:28.100Z,0
2022-12-17T19:15:23.808Z,0
2022-12-17T19:30:19.741Z,0
2022-12-17T19:45:16.006Z,0
2022-12-17T20:00:12.472Z,0
2022-12-17T20:15:08.829Z,0
2022-12-17T20:30:05.344Z,0
2022-12-17T20:45:01.816Z,0
2022-12-17T20:59:58.271Z,0
2022-12-17T21:14:54.650Z,0
2022-12-17T21:29:50.595Z,0
2022-12-17T21:44:46.536Z,0
2022-12-17T21:59:42.908Z,0
2022-12-17T22:14:39.073Z,0
2022-12-17T22:29:35.135Z,0
2022-12-17T22:44:50.442Z,0
2022-12-17T23:14:23.624Z,0
2022-12-17T23:29:19.940Z,0
2022-12-17T23:44:15.689Z,0
2022-12-17T23:59:12.185Z,0
